Time;durP1;ratioP1;P1;durP2;ratioP2;P2;SDS_P1;SDS_P2;PMS_P1;PMS_P2;Temp;Humidity;BMP_temperature;BMP_pressure;BME280_temperature;BME280_humidity;BME280_pressure;Samples;Min_cycle;Max_cycle;Signal;HPM_P1;HPM_P2
2022/03/30 00:00:10;;;;;;;13.95;8.45;;;13.70;93.20;;;;;;7387921;19;20159;-82
2022/03/30 00:02:36;;;;;;;16.15;7.70;;;13.80;93.10;;;;;;7386997;19;20146;-82
2022/03/30 00:05:02;;;;;;;14.75;8.13;;;13.90;93.20;;;;;;7386965;19;20141;-79
2022/03/30 00:07:31;;;;;;;13.50;7.80;;;14.00;92.80;;;;;;7388607;19;20161;-79
2022/03/30 00:10:01;;;;;;;12.83;7.93;;;14.00;92.70;;;;;;7387110;19;20194;-81
2022/03/30 00:12:28;;;;;;;16.57;8.20;;;14.00;92.60;;;;;;7391180;19;20655;-82
2022/03/30 00:14:53;;;;;;;16.38;8.27;;;14.00;92.60;;;;;;7397270;19;20126;-80
2022/03/30 00:17:19;;;;;;;13.73;8.10;;;13.90;92.70;;;;;;7390002;19;20141;-77
2022/03/30 00:19:45;;;;;;;13.63;7.70;;;13.70;92.80;;;;;;7388207;19;20548;-78
2022/03/30 00:22:11;;;;;;;13.50;7.75;;;13.80;92.90;;;;;;7386709;19;20142;-77
2022/03/30 00:24:38;;;;;;;14.40;8.43;;;13.80;92.80;;;;;;7388245;19;20157;-78
2022/03/30 00:27:07;;;;;;;14.00;7.90;;;13.80;92.80;;;;;;7385584;19;20328;-83
2022/03/30 00:29:34;;;;;;;14.68;8.18;;;13.80;92.80;;;;;;7385242;19;20708;-82
2022/03/30 00:32:00;;;;;;;13.20;7.72;;;13.80;92.90;;;;;;7386335;19;20156;-82
2022/03/30 00:34:26;;;;;;;11.80;7.60;;;13.70;92.90;;;;;;7385823;19;20828;-81
2022/03/30 00:36:52;;;;;;;13.73;7.75;;;13.60;93.00;;;;;;7389187;19;20202;-78
2022/03/30 00:39:18;;;;;;;16.80;9.23;;;13.60;93.10;;;;;;7399065;19;20126;-81
2022/03/30 00:41:45;;;;;;;14.60;7.07;;;13.70;93.10;;;;;;7387187;19;20138;-80
2022/03/30 00:44:12;;;;;;;13.48;7.45;;;13.70;93.10;;;;;;7387035;19;20122;-78
2022/03/30 00:46:39;;;;;;;19.27;8.70;;;13.60;93.10;;;;;;7388201;19;20716;-82
2022/03/30 00:49:05;;;;;;;13.30;7.50;;;13.60;93.40;;;;;;7389814;19;20126;-78
2022/03/30 00:51:32;;;;;;;11.68;7.30;;;13.60;93.50;;;;;;7386729;19;20499;-78
2022/03/30 00:53:58;;;;;;;11.57;6.82;;;13.70;93.50;;;;;;7385620;19;20119;-78
2022/03/30 00:56:27;;;;;;;17.27;8.35;;;13.80;93.30;;;;;;7384965;19;20134;-81
2022/03/30 00:58:52;;;;;;;15.10;8.43;;;13.90;93.20;;;;;;7385208;19;20134;-79
2022/03/30 01:01:20;;;;;;;18.45;8.05;;;13.90;93.10;;;;;;7393781;19;20127;-80
2022/03/30 01:03:47;;;;;;;19.17;8.60;;;13.90;93.10;;;;;;7393045;19;20146;-78
2022/03/30 01:06:13;;;;;;;11.85;7.40;;;13.80;93.20;;;;;;7386974;19;20544;-81
2022/03/30 01:08:39;;;;;;;14.23;7.22;;;13.70;93.40;;;;;;7385456;19;20525;-77
2022/03/30 01:11:05;;;;;;;14.90;7.50;;;13.70;93.60;;;;;;7387123;19;20130;-81
2022/03/30 01:13:33;;;;;;;14.07;7.97;;;13.70;93.80;;;;;;7388735;19;20150;-77
2022/03/30 01:15:59;;;;;;;13.95;8.00;;;13.70;94.00;;;;;;7385030;19;20123;-77
2022/03/30 01:18:24;;;;;;;13.35;8.30;;;13.80;94.30;;;;;;7385623;19;20146;-81
2022/03/30 01:20:51;;;;;;;15.35;8.25;;;13.80;94.50;;;;;;7385765;19;20184;-77
2022/03/30 01:23:17;;;;;;;14.63;8.00;;;13.90;94.70;;;;;;7392607;19;20172;-77
2022/03/30 01:25:43;;;;;;;13.65;8.70;;;13.80;94.50;;;;;;7390423;19;20131;-82
2022/03/30 01:28:09;;;;;;;16.83;8.20;;;13.90;94.60;;;;;;7382609;19;20158;-77
2022/03/30 01:33:20;;;;;;;16.25;7.57;;;13.80;94.70;;;;;;7384304;19;20705;-81
2022/03/30 01:35:46;;;;;;;14.93;8.23;;;13.90;94.50;;;;;;7384094;19;20214;-77
2022/03/30 01:38:13;;;;;;;14.10;8.23;;;13.90;94.40;;;;;;7382012;19;20143;-80
2022/03/30 01:40:39;;;;;;;17.00;8.10;;;13.90;94.60;;;;;;7388770;19;20144;-79
2022/03/30 01:43:05;;;;;;;18.08;9.20;;;14.00;94.70;;;;;;7385405;19;20194;-80
2022/03/30 01:45:31;;;;;;;14.00;8.43;;;14.00;94.80;;;;;;7384152;19;20451;-80
2022/03/30 01:48:01;;;;;;;14.52;8.80;;;14.00;94.80;;;;;;7387398;19;20155;-77
2022/03/30 01:50:29;;;;;;;15.30;8.30;;;14.00;94.90;;;;;;7384103;19;20131;-79
2022/03/30 01:52:55;;;;;;;14.00;8.00;;;14.00;95.10;;;;;;7385347;19;20141;-77
2022/03/30 01:55:21;;;;;;;14.27;8.05;;;14.00;95.10;;;;;;7391614;19;20130;-76
2022/03/30 01:57:47;;;;;;;14.50;7.50;;;13.90;95.30;;;;;;7392248;19;20262;-78
2022/03/30 02:00:15;;;;;;;12.75;8.25;;;13.90;95.30;;;;;;7399996;19;20118;-78
2022/03/30 02:02:41;;;;;;;14.63;8.40;;;13.80;95.00;;;;;;7388225;19;20194;-77
2022/03/30 02:05:08;;;;;;;15.18;7.93;;;13.90;94.80;;;;;;7393668;19;20134;-77
2022/03/30 02:07:39;;;;;;;13.35;7.57;;;13.90;94.80;;;;;;7393563;19;20194;-79
2022/03/30 02:10:06;;;;;;;15.43;7.93;;;13.80;94.80;;;;;;7392456;19;20119;-77
2022/03/30 02:12:33;;;;;;;16.17;8.38;;;13.80;95.00;;;;;;7392866;19;20143;-77
2022/03/30 02:14:59;;;;;;;14.20;7.68;;;13.90;94.90;;;;;;7390877;19;20130;-81
2022/03/30 02:17:27;;;;;;;14.13;7.63;;;13.70;94.90;;;;;;7389785;19;20610;-77
2022/03/30 02:19:55;;;;;;;13.73;8.30;;;13.50;95.20;;;;;;7391828;19;20134;-78
2022/03/30 02:22:25;;;;;;;16.20;8.35;;;13.70;95.00;;;;;;7394715;19;20160;-80
2022/03/30 02:24:52;;;;;;;17.08;8.98;;;13.80;94.90;;;;;;7389190;19;20616;-77
2022/03/30 02:27:20;;;;;;;14.55;7.57;;;13.80;95.00;;;;;;7390408;19;20122;-81
2022/03/30 02:29:49;;;;;;;15.30;8.40;;;13.80;95.30;;;;;;7389107;19;20151;-81
2022/03/30 02:32:15;;;;;;;13.85;8.40;;;13.80;95.30;;;;;;7388910;19;20149;-81
2022/03/30 02:34:42;;;;;;;14.13;8.25;;;13.80;95.60;;;;;;7390701;19;20497;-77
2022/03/30 02:37:08;;;;;;;15.98;8.30;;;13.80;96.10;;;;;;7389773;19;20470;-78
2022/03/30 02:39:35;;;;;;;15.57;8.60;;;13.80;96.40;;;;;;7396708;19;20134;-77
2022/03/30 02:42:01;;;;;;;17.00;8.65;;;13.80;96.10;;;;;;7409072;19;20533;-80
2022/03/30 02:44:27;;;;;;;18.60;8.48;;;13.80;96.20;;;;;;7390427;19;20147;-76
2022/03/30 02:46:53;;;;;;;17.33;8.27;;;13.80;96.00;;;;;;7388680;19;20446;-77
2022/03/30 02:49:19;;;;;;;17.05;7.68;;;13.80;96.00;;;;;;7389478;19;20499;-82
2022/03/30 02:51:45;;;;;;;15.90;8.80;;;13.80;96.10;;;;;;7388533;19;20217;-78
2022/03/30 02:54:11;;;;;;;17.77;8.53;;;13.70;96.20;;;;;;7390108;19;20131;-78
2022/03/30 02:56:37;;;;;;;15.40;8.18;;;13.60;96.40;;;;;;7389474;19;20747;-82
2022/03/30 02:59:03;;;;;;;11.65;7.78;;;13.50;96.50;;;;;;7392381;19;20134;-77
2022/03/30 03:01:29;;;;;;;13.30;8.27;;;13.30;96.60;;;;;;7394973;19;20209;-78
2022/03/30 03:03:54;;;;;;;14.10;7.35;;;13.00;97.10;;;;;;7388210;19;20142;-78
2022/03/30 03:06:20;;;;;;;14.05;8.20;;;12.80;97.50;;;;;;7386308;19;20133;-77
2022/03/30 03:08:46;;;;;;;11.43;7.63;;;12.80;97.80;;;;;;7387869;19;20155;-77
2022/03/30 03:11:12;;;;;;;13.32;8.43;;;12.90;97.60;;;;;;7390873;19;20127;-78
2022/03/30 03:13:38;;;;;;;13.38;7.70;;;13.20;97.30;;;;;;7387991;19;20143;-77
2022/03/30 03:16:05;;;;;;;16.17;8.30;;;13.40;97.00;;;;;;7387664;19;20151;-81
2022/03/30 03:18:31;;;;;;;13.35;7.93;;;13.50;96.80;;;;;;7388449;19;20606;-79
2022/03/30 03:20:56;;;;;;;15.55;8.27;;;13.50;96.70;;;;;;7389312;19;20164;-77
2022/03/30 03:23:24;;;;;;;13.23;7.72;;;13.70;96.40;;;;;;7397864;19;20198;-81
2022/03/30 03:25:50;;;;;;;12.65;7.38;;;13.70;96.30;;;;;;7390066;19;20134;-78
2022/03/30 03:28:17;;;;;;;12.30;7.85;;;13.60;96.30;;;;;;7388938;19;20561;-82
2022/03/30 03:30:42;;;;;;;16.67;8.55;;;13.50;96.40;;;;;;7389299;19;20134;-78
2022/03/30 03:33:09;;;;;;;15.27;7.65;;;13.50;96.40;;;;;;7389288;19;20473;-81
2022/03/30 03:35:35;;;;;;;11.23;7.47;;;13.60;96.20;;;;;;7389243;19;20138;-77
2022/03/30 03:38:03;;;;;;;11.55;7.65;;;13.60;96.20;;;;;;7385622;19;20166;-78
2022/03/30 03:40:30;;;;;;;12.80;8.57;;;13.70;96.40;;;;;;7387484;19;20466;-80
2022/03/30 03:42:57;;;;;;;16.33;8.25;;;13.60;96.10;;;;;;7397640;19;20194;-82
2022/03/30 03:45:23;;;;;;;13.75;7.97;;;13.50;96.00;;;;;;7391943;19;20156;-78
2022/03/30 03:47:51;;;;;;;16.45;8.95;;;13.40;96.20;;;;;;7387117;19;20138;-81
2022/03/30 03:50:17;;;;;;;12.95;7.75;;;13.60;96.10;;;;;;7387078;19;20143;-79
2022/03/30 03:52:43;;;;;;;16.80;9.13;;;13.70;96.00;;;;;;7387608;19;20612;-84
2022/03/30 03:55:10;;;;;;;13.43;7.30;;;13.70;95.90;;;;;;7387536;19;20147;-77
2022/03/30 03:57:41;;;;;;;16.25;7.63;;;13.70;96.00;;;;;;7388264;19;20127;-78
2022/03/30 04:00:09;;;;;;;14.98;8.20;;;13.60;96.00;;;;;;7388103;19;20590;-78
2022/03/30 04:02:35;;;;;;;12.32;7.55;;;13.60;95.90;;;;;;7391300;19;20505;-78
2022/03/30 04:05:02;;;;;;;13.10;7.63;;;13.60;95.80;;;;;;7390839;19;20162;-78
2022/03/30 04:07:28;;;;;;;15.63;8.55;;;13.70;95.90;;;;;;7393906;19;20131;-77
2022/03/30 04:09:54;;;;;;;13.88;8.32;;;13.70;96.00;;;;;;7388024;19;20584;-79
2022/03/30 04:12:20;;;;;;;15.27;8.20;;;13.70;96.20;;;;;;7390381;19;20159;-77
2022/03/30 04:14:46;;;;;;;18.00;7.95;;;13.70;96.50;;;;;;7386890;19;20122;-83
2022/03/30 04:17:12;;;;;;;13.93;7.18;;;13.70;96.40;;;;;;7386205;19;20126;-84
2022/03/30 04:19:38;;;;;;;13.57;7.65;;;13.60;96.40;;;;;;7386535;19;20166;-83
2022/03/30 04:22:05;;;;;;;16.30;8.33;;;13.60;96.60;;;;;;7388793;19;20134;-83
2022/03/30 04:24:31;;;;;;;17.67;8.18;;;13.50;96.80;;;;;;7387195;19;20492;-78
2022/03/30 04:26:57;;;;;;;15.55;8.07;;;13.50;96.80;;;;;;7388385;19;20202;-83
2022/03/30 04:29:23;;;;;;;16.20;8.88;;;13.60;96.60;;;;;;7399644;19;20158;-81
2022/03/30 04:31:49;;;;;;;18.40;8.57;;;13.70;96.40;;;;;;7399541;19;20127;-78
2022/03/30 04:34:15;;;;;;;13.85;8.48;;;13.60;96.60;;;;;;7387275;19;20159;-80
2022/03/30 04:36:41;;;;;;;15.82;8.00;;;13.60;96.60;;;;;;7385666;19;20150;-78
2022/03/30 04:39:07;;;;;;;25.05;8.98;;;13.80;96.60;;;;;;7388275;19;20503;-82
2022/03/30 04:41:33;;;;;;;20.48;8.38;;;13.70;97.00;;;;;;7388599;19;20138;-82
2022/03/30 04:43:58;;;;;;;13.48;7.50;;;13.70;97.60;;;;;;7386122;19;20146;-82
2022/03/30 04:46:24;;;;;;;18.00;7.70;;;13.80;97.80;;;;;;7387829;19;20127;-80
2022/03/30 04:48:50;;;;;;;14.88;7.47;;;13.80;98.40;;;;;;7388650;19;20123;-79
2022/03/30 04:51:16;;;;;;;14.80;7.28;;;13.60;99.40;;;;;;7391418;19;20141;-79
2022/03/30 04:53:42;;;;;;;20.10;8.95;;;13.50;99.90;;;;;;7386122;19;20463;-78
2022/03/30 04:56:08;;;;;;;14.93;7.30;;;13.50;99.90;;;;;;7387127;19;20573;-81
2022/03/30 04:58:34;;;;;;;13.93;7.25;;;13.40;99.90;;;;;;7386285;19;20566;-79
2022/03/30 05:00:59;;;;;;;16.70;7.32;;;13.40;99.90;;;;;;7385031;19;20621;-79
2022/03/30 05:03:25;;;;;;;12.90;7.40;;;13.50;99.90;;;;;;7386115;19;20238;-79
2022/03/30 05:05:51;;;;;;;14.33;7.80;;;13.40;99.90;;;;;;7385533;19;20150;-78
2022/03/30 05:08:17;;;;;;;14.20;6.77;;;13.30;99.90;;;;;;7385056;19;20761;-83
2022/03/30 05:10:46;;;;;;;15.23;7.43;;;13.30;99.90;;;;;;7386535;19;20133;-83
2022/03/30 05:13:13;;;;;;;13.03;6.80;;;13.10;99.90;;;;;;7391188;19;20131;-80
2022/03/30 05:15:39;;;;;;;10.33;5.77;;;13.00;99.90;;;;;;7386815;19;20235;-82
2022/03/30 05:18:06;;;;;;;15.53;6.47;;;12.90;99.90;;;;;;7384083;19;20602;-82
2022/03/30 05:20:33;;;;;;;19.80;6.67;;;12.90;99.90;;;;;;7382390;19;20143;-78
2022/03/30 05:22:59;;;;;;;12.67;6.90;;;13.00;99.90;;;;;;7387951;19;20141;-79
2022/03/30 05:25:25;;;;;;;18.10;6.93;;;13.00;99.90;;;;;;7388852;19;20131;-81
2022/03/30 05:27:51;;;;;;;17.70;7.03;;;13.00;99.90;;;;;;7384991;19;20147;-77
2022/03/30 05:30:17;;;;;;;12.70;6.77;;;12.80;99.90;;;;;;7390942;19;20158;-81
2022/03/30 05:32:45;;;;;;;13.73;6.97;;;12.90;99.90;;;;;;7398544;19;20577;-77
2022/03/30 05:35:13;;;;;;;12.63;6.63;;;12.70;99.90;;;;;;7398379;19;20190;-81
2022/03/30 05:37:40;;;;;;;15.40;7.47;;;12.70;99.90;;;;;;7391443;19;20155;-79
2022/03/30 05:40:07;;;;;;;13.93;7.23;;;12.80;99.90;;;;;;7394477;19;20149;-79
2022/03/30 05:42:33;;;;;;;22.77;8.23;;;12.80;99.90;;;;;;7393263;19;20163;-80
2022/03/30 05:44:59;;;;;;;13.53;7.13;;;12.80;99.90;;;;;;7392626;19;20189;-80
2022/03/30 05:47:24;;;;;;;18.43;7.33;;;12.70;99.90;;;;;;7391589;19;20127;-79
2022/03/30 05:49:50;;;;;;;18.90;7.23;;;12.80;99.90;;;;;;7392635;19;20133;-79
2022/03/30 05:52:16;;;;;;;13.63;6.77;;;12.80;99.90;;;;;;7393048;19;20146;-78
2022/03/30 05:54:42;;;;;;;16.60;7.37;;;12.60;99.90;;;;;;7392334;19;20163;-79
2022/03/30 05:57:08;;;;;;;10.48;6.75;;;12.60;99.90;;;;;;7394369;19;20152;-77
2022/03/30 05:59:37;;;;;;;16.30;7.00;;;12.60;99.90;;;;;;7396542;19;20150;-80
2022/03/30 06:02:05;;;;;;;14.37;6.80;;;12.70;99.90;;;;;;7397255;19;20127;-79
2022/03/30 06:04:31;;;;;;;19.10;7.83;;;12.70;99.90;;;;;;7391361;19;20509;-77
2022/03/30 06:06:58;;;;;;;15.73;6.80;;;12.70;99.90;;;;;;7390091;19;20145;-79
2022/03/30 06:09:24;;;;;;;14.80;6.50;;;12.70;99.90;;;;;;7392020;19;20123;-81
2022/03/30 06:11:50;;;;;;;17.47;6.67;;;12.60;99.90;;;;;;7392839;19;20145;-78
2022/03/30 06:14:16;;;;;;;14.77;7.10;;;12.60;99.90;;;;;;7392140;19;20159;-77
2022/03/30 06:16:43;;;;;;;16.53;7.00;;;12.60;99.90;;;;;;7388543;19;20609;-81
2022/03/30 06:19:12;;;;;;;16.17;6.72;;;12.60;99.90;;;;;;7394430;19;20904;-78
2022/03/30 06:21:39;;;;;;;15.52;7.80;;;12.70;99.90;;;;;;7398214;19;20502;-80
2022/03/30 06:24:08;;;;;;;15.63;6.67;;;12.70;99.90;;;;;;7397421;19;20138;-84
2022/03/30 06:26:34;;;;;;;17.37;6.87;;;12.60;99.90;;;;;;7390495;19;20139;-80
2022/03/30 06:29:00;;;;;;;17.27;7.67;;;12.60;99.90;;;;;;7391436;19;20135;-80
2022/03/30 06:31:25;;;;;;;16.37;6.93;;;12.70;99.90;;;;;;7392615;19;20166;-79
2022/03/30 06:33:51;;;;;;;15.47;7.17;;;12.50;99.90;;;;;;7392450;19;20161;-83
2022/03/30 06:36:17;;;;;;;15.83;6.60;;;12.60;99.90;;;;;;7391450;19;20158;-82
2022/03/30 06:38:43;;;;;;;13.52;6.88;;;12.70;99.90;;;;;;7395773;19;20134;-83
2022/03/30 06:41:12;;;;;;;11.32;6.50;;;12.70;99.90;;;;;;7389386;19;20485;-83
2022/03/30 06:43:42;;;;;;;12.60;6.43;;;12.60;99.90;;;;;;7393707;19;20138;-80
2022/03/30 06:46:09;;;;;;;12.53;6.73;;;12.60;99.90;;;;;;7399683;19;20151;-79
2022/03/30 06:48:36;;;;;;;15.60;7.15;;;12.50;99.90;;;;;;7395122;19;20134;-84
2022/03/30 06:51:02;;;;;;;14.87;8.03;;;12.50;99.90;;;;;;7391827;19;20213;-80
2022/03/30 06:53:27;;;;;;;14.37;7.17;;;12.60;99.90;;;;;;7390745;19;20141;-80
2022/03/30 07:06:03;;;;;;;14.13;7.00;;;12.40;99.90;;;;;;7401139;19;20147;-79
2022/03/30 07:11:14;;;;;;;18.00;6.50;;;12.50;99.90;;;;;;7394101;19;20561;-85
2022/03/30 07:13:40;;;;;;;14.73;6.63;;;12.50;99.90;;;;;;7392253;19;20131;-79
2022/03/30 07:16:06;;;;;;;18.37;7.23;;;12.50;99.90;;;;;;7389301;19;20142;-79
2022/03/30 07:18:32;;;;;;;17.00;8.03;;;12.60;99.90;;;;;;7389959;19;20141;-80
2022/03/30 07:20:58;;;;;;;19.00;8.73;;;12.50;99.90;;;;;;7390617;19;20495;-79
2022/03/30 07:23:24;;;;;;;14.17;7.20;;;12.50;99.90;;;;;;7389769;19;20201;-83
2022/03/30 07:25:50;;;;;;;17.00;8.10;;;12.40;99.90;;;;;;7389273;19;20614;-83
2022/03/30 07:28:16;;;;;;;14.23;7.73;;;12.10;99.90;;;;;;7393951;19;20689;-82
2022/03/30 07:30:45;;;;;;;13.00;6.97;;;12.20;99.90;;;;;;7393475;19;20733;-79
2022/03/30 07:33:12;;;;;;;12.23;6.40;;;12.20;99.90;;;;;;7388528;19;20134;-78
2022/03/30 07:35:39;;;;;;;15.33;6.70;;;12.10;99.90;;;;;;7389010;19;20134;-84
2022/03/30 07:38:05;;;;;;;15.77;8.13;;;12.20;99.90;;;;;;7386669;19;20150;-79
2022/03/30 07:40:32;;;;;;;16.43;7.87;;;12.30;99.90;;;;;;7386823;19;20148;-83
2022/03/30 07:42:58;;;;;;;15.03;8.20;;;12.40;99.90;;;;;;7388643;19;20154;-78
2022/03/30 07:45:25;;;;;;;14.83;7.57;;;12.60;99.90;;;;;;7389233;19;20478;-78
2022/03/30 07:47:51;;;;;;;13.10;6.83;;;12.40;99.90;;;;;;7387627;19;20138;-83
2022/03/30 07:50:17;;;;;;;17.47;7.20;;;12.40;99.90;;;;;;7399479;19;20153;-81
2022/03/30 07:52:44;;;;;;;16.20;7.33;;;12.40;99.90;;;;;;7403004;19;20134;-84
2022/03/30 07:55:12;;;;;;;14.17;7.27;;;12.50;99.90;;;;;;7388294;19;20141;-78
2022/03/30 07:57:42;;;;;;;15.93;7.70;;;12.40;99.90;;;;;;7386474;19;20147;-78
2022/03/30 08:00:09;;;;;;;14.37;6.80;;;12.50;99.90;;;;;;7385839;19;20143;-83
2022/03/30 08:02:36;;;;;;;14.63;6.73;;;12.60;99.90;;;;;;7387030;19;20162;-79
2022/03/30 08:05:02;;;;;;;13.73;6.50;;;12.40;99.90;;;;;;7387526;19;20180;-79
2022/03/30 08:07:30;;;;;;;14.57;7.20;;;12.60;99.90;;;;;;7388310;19;20134;-83
2022/03/30 08:09:57;;;;;;;11.83;6.87;;;12.50;99.90;;;;;;7389702;19;20146;-78
2022/03/30 08:12:24;;;;;;;13.63;7.37;;;12.60;99.90;;;;;;7398163;19;20179;-81
2022/03/30 08:14:51;;;;;;;23.57;12.17;;;12.70;99.90;;;;;;7401125;19;20268;-78
2022/03/30 08:17:17;;;;;;;19.27;9.50;;;12.70;99.90;;;;;;7386198;19;20233;-83
2022/03/30 08:19:46;;;;;;;13.90;7.17;;;12.80;99.90;;;;;;7391643;19;20127;-79
2022/03/30 08:22:30;;;;;;;12.93;7.10;;;12.90;99.90;;;;;;7387644;19;20150;-79
2022/03/30 08:25:06;;;;;;;21.67;9.67;;;12.70;99.90;;;;;;7385799;19;20146;-78
2022/03/30 08:27:33;;;;;;;18.80;9.17;;;12.70;99.90;;;;;;7386914;19;20130;-84
2022/03/30 08:29:59;;;;;;;14.60;7.70;;;12.80;99.90;;;;;;7389047;19;20134;-78
2022/03/30 08:32:27;;;;;;;21.10;8.60;;;12.80;99.90;;;;;;7389764;19;20529;-80
2022/03/30 08:34:55;;;;;;;17.87;7.77;;;12.80;99.90;;;;;;7389184;19;20606;-83
2022/03/30 08:37:22;;;;;;;17.50;6.63;;;12.90;99.90;;;;;;7393758;19;20178;-78
2022/03/30 08:39:48;;;;;;;14.07;8.07;;;13.10;99.90;;;;;;7397547;19;20131;-84
2022/03/30 08:42:16;;;;;;;17.03;6.77;;;12.90;99.90;;;;;;7387140;19;20142;-78
2022/03/30 08:44:46;;;;;;;15.63;7.00;;;12.90;99.90;;;;;;7387892;19;20132;-78
2022/03/30 08:47:12;;;;;;;19.98;9.35;;;12.90;99.90;;;;;;7394528;19;20126;-83
2022/03/30 08:49:38;;;;;;;14.03;7.57;;;12.80;99.90;;;;;;7387059;19;20127;-85
2022/03/30 08:52:07;;;;;;;19.00;6.97;;;12.90;99.90;;;;;;7387120;19;20158;-78
2022/03/30 08:54:34;;;;;;;11.37;5.80;;;12.80;99.90;;;;;;7387461;19;20769;-78
2022/03/30 08:57:03;;;;;;;16.20;6.57;;;12.90;99.90;;;;;;7385367;19;20576;-79
2022/03/30 08:59:29;;;;;;;15.40;7.03;;;12.90;99.90;;;;;;7387377;19;20123;-82
2022/03/30 09:01:56;;;;;;;14.80;6.83;;;13.00;99.90;;;;;;7402854;19;20161;-78
2022/03/30 09:04:22;;;;;;;16.30;6.80;;;13.00;99.90;;;;;;7391834;19;20127;-84
2022/03/30 09:06:53;;;;;;;18.77;9.17;;;13.00;99.90;;;;;;7394021;19;20180;-79
2022/03/30 09:09:34;;;;;;;15.30;7.67;;;13.00;99.90;;;;;;7392988;19;20603;-78
2022/03/30 09:12:06;;;;;;;17.17;8.07;;;13.00;99.90;;;;;;7396439;19;20135;-78
2022/03/30 09:14:34;;;;;;;13.50;6.70;;;12.90;99.90;;;;;;7393555;19;20466;-79
2022/03/30 09:17:02;;;;;;;17.67;7.73;;;12.90;99.90;;;;;;7395876;19;20138;-79
2022/03/30 09:19:29;;;;;;;13.10;6.83;;;12.80;99.90;;;;;;7394470;19;20142;-83
2022/03/30 09:21:58;;;;;;;15.73;6.27;;;12.90;99.90;;;;;;7401771;19;20470;-82
2022/03/30 09:24:34;;;;;;;13.73;6.15;;;13.00;99.90;;;;;;7395126;19;20143;-83
2022/03/30 09:27:01;;;;;;;17.10;6.32;;;13.00;99.90;;;;;;7399740;19;20131;-78
2022/03/30 09:29:31;;;;;;;13.43;6.20;;;12.90;99.90;;;;;;7390893;19;20742;-84
2022/03/30 09:32:01;;;;;;;16.05;5.70;;;12.80;99.90;;;;;;7393355;19;20598;-79
2022/03/30 09:34:33;;;;;;;11.63;6.20;;;12.90;99.90;;;;;;7393609;19;20643;-78
2022/03/30 09:36:59;;;;;;;20.30;11.10;;;13.00;99.90;;;;;;7391747;19;20649;-84
2022/03/30 09:39:35;;;;;;;17.60;6.68;;;12.90;99.90;;;;;;7394083;19;20170;-84
2022/03/30 09:42:03;;;;;;;13.27;5.95;;;13.00;99.90;;;;;;7399589;19;20146;-83
2022/03/30 09:44:30;;;;;;;10.68;6.30;;;13.00;99.90;;;;;;7394951;19;20529;-78
2022/03/30 09:47:03;;;;;;;10.20;5.82;;;13.10;99.90;;;;;;7392437;19;20146;-78
2022/03/30 09:49:48;;;;;;;17.13;5.95;;;13.00;99.90;;;;;;7393892;19;20249;-84
2022/03/30 09:52:21;;;;;;;16.02;5.85;;;13.10;99.90;;;;;;7395381;19;20126;-83
2022/03/30 09:54:49;;;;;;;11.67;5.77;;;13.10;99.90;;;;;;7392724;19;20625;-83
2022/03/30 09:57:22;;;;;;;14.20;6.00;;;13.00;99.90;;;;;;7392776;19;20218;-83
2022/03/30 10:00:10;;;;;;;12.77;6.18;;;12.90;99.90;;;;;;7396233;19;20131;-79
2022/03/30 10:02:43;;;;;;;20.77;8.73;;;13.10;99.90;;;;;;7394801;19;20150;-83
2022/03/30 10:05:12;;;;;;;17.02;6.82;;;13.10;99.90;;;;;;7401167;19;20138;-78
2022/03/30 10:07:39;;;;;;;12.73;6.03;;;13.10;99.90;;;;;;7398053;19;20131;-84
2022/03/30 10:10:07;;;;;;;11.40;5.27;;;13.10;99.90;;;;;;7393186;19;20149;-78
2022/03/30 10:12:33;;;;;;;12.57;5.17;;;13.20;99.90;;;;;;7398027;19;20171;-79
2022/03/30 10:14:59;;;;;;;9.35;4.85;;;13.20;99.90;;;;;;7389836;19;20130;-79
2022/03/30 10:17:28;;;;;;;8.07;5.03;;;13.20;99.90;;;;;;7392637;19;20162;-79
2022/03/30 10:19:57;;;;;;;13.85;5.85;;;13.10;99.90;;;;;;7391306;19;20150;-78
2022/03/30 10:22:57;;;;;;;9.50;5.00;;;13.20;99.90;;;;;;7392278;19;20134;-82
2022/03/30 10:25:55;;;;;;;11.68;4.72;;;13.30;99.90;;;;;;7401686;19;20127;-83
2022/03/30 10:28:47;;;;;;;13.77;5.10;;;13.30;99.90;;;;;;7393016;19;20825;-84
2022/03/30 10:31:13;;;;;;;12.75;5.68;;;13.20;99.90;;;;;;7392551;19;20126;-82
2022/03/30 10:33:42;;;;;;;16.83;5.93;;;13.00;99.90;;;;;;7392053;19;20138;-77
2022/03/30 10:36:29;;;;;;;6.47;4.50;;;13.20;99.90;;;;;;7392733;19;20142;-83
2022/03/30 10:39:17;;;;;;;9.02;4.72;;;13.40;99.90;;;;;;7392513;19;20130;-78
2022/03/30 10:42:07;;;;;;;13.43;5.65;;;13.40;99.90;;;;;;7394084;19;20143;-78
2022/03/30 10:44:36;;;;;;;10.40;5.50;;;13.60;99.90;;;;;;7401186;19;20490;-83
2022/03/30 10:47:34;;;;;;;12.57;4.90;;;13.50;99.90;;;;;;7390872;19;20142;-83
2022/03/30 10:50:02;;;;;;;13.85;5.65;;;13.70;99.90;;;;;;7389728;19;20138;-84
2022/03/30 10:52:33;;;;;;;10.40;5.82;;;13.60;99.90;;;;;;7390763;19;20158;-83
2022/03/30 10:55:19;;;;;;;13.80;5.83;;;13.60;99.90;;;;;;7393816;19;20135;-77
2022/03/30 10:57:50;;;;;;;12.30;5.87;;;13.40;99.90;;;;;;7391095;19;20143;-79
2022/03/30 11:00:27;;;;;;;13.00;5.17;;;13.50;99.90;;;;;;7392033;19;20134;-79
2022/03/30 11:03:08;;;;;;;13.37;5.73;;;13.40;99.90;;;;;;7396037;19;20443;-80
2022/03/30 11:05:35;;;;;;;14.37;5.90;;;13.50;99.90;;;;;;7392726;19;20609;-79
2022/03/30 11:08:05;;;;;;;14.60;5.43;;;13.50;99.90;;;;;;7401041;19;20142;-79
2022/03/30 11:10:47;;;;;;;9.13;5.50;;;13.50;99.90;;;;;;7390658;19;20158;-83
2022/03/30 11:13:23;;;;;;;11.40;5.35;;;13.40;99.90;;;;;;7389914;19;20170;-84
2022/03/30 11:15:59;;;;;;;13.88;6.07;;;13.30;99.90;;;;;;7390925;19;20153;-83
2022/03/30 11:18:26;;;;;;;12.97;7.17;;;13.50;99.90;;;;;;7394141;19;20158;-78
2022/03/30 11:21:15;;;;;;;14.67;5.40;;;13.50;99.90;;;;;;7391760;19;20146;-83
2022/03/30 11:24:18;;;;;;;13.50;5.57;;;13.30;99.90;;;;;;7391473;19;20141;-79
2022/03/30 11:26:50;;;;;;;12.10;5.70;;;13.40;99.90;;;;;;7406221;19;20138;-83
2022/03/30 11:29:40;;;;;;;13.47;8.00;;;13.50;99.90;;;;;;7392963;19;20495;-84
2022/03/30 11:32:18;;;;;;;16.77;7.00;;;13.60;99.90;;;;;;7391604;19;20578;-85
2022/03/30 11:34:47;;;;;;;16.63;8.47;;;13.50;99.90;;;;;;7390775;19;20225;-79
2022/03/30 11:37:14;;;;;;;16.50;6.63;;;13.40;99.90;;;;;;7388462;19;20174;-83
2022/03/30 11:39:41;;;;;;;12.60;5.60;;;13.30;99.90;;;;;;7389215;19;20135;-83
2022/03/30 11:42:08;;;;;;;12.60;5.73;;;13.20;99.90;;;;;;7389206;19;20138;-79
2022/03/30 11:47:26;;;;;;;12.37;6.63;;;13.50;99.90;;;;;;7402336;19;20142;-85
2022/03/30 11:49:54;;;;;;;10.07;5.87;;;13.60;99.90;;;;;;7394571;19;20171;-79
2022/03/30 11:52:22;;;;;;;14.77;6.53;;;13.60;99.90;;;;;;7388886;19;20130;-79
2022/03/30 11:54:53;;;;;;;12.27;6.00;;;13.60;99.90;;;;;;7389216;19;20127;-82
2022/03/30 11:57:20;;;;;;;11.87;6.50;;;13.50;99.90;;;;;;7388287;19;20157;-78
2022/03/30 12:00:14;;;;;;;15.00;6.13;;;13.50;99.90;;;;;;7388643;19;20163;-78
2022/03/30 12:02:44;;;;;;;10.00;6.67;;;13.60;99.90;;;;;;7394479;19;20158;-84
2022/03/30 12:05:11;;;;;;;16.13;7.60;;;13.60;99.90;;;;;;7388821;19;20146;-80
2022/03/30 12:07:41;;;;;;;13.70;6.80;;;13.60;99.90;;;;;;7388605;19;20139;-79
2022/03/30 12:10:13;;;;;;;11.77;7.13;;;13.60;99.90;;;;;;7395000;19;20616;-84
2022/03/30 12:12:40;;;;;;;14.18;7.13;;;13.60;99.90;;;;;;7393077;19;20135;-84
2022/03/30 12:15:11;;;;;;;13.27;6.97;;;13.50;99.90;;;;;;7390475;19;20186;-79
2022/03/30 12:17:37;;;;;;;13.67;7.73;;;13.60;99.90;;;;;;7389075;19;20142;-85
2022/03/30 12:20:08;;;;;;;11.88;7.32;;;13.80;99.90;;;;;;7387606;19;20472;-79
2022/03/30 12:22:38;;;;;;;14.02;7.90;;;13.80;99.90;;;;;;7388488;19;20150;-78
2022/03/30 12:25:19;;;;;;;12.65;8.05;;;13.80;99.90;;;;;;7387209;19;20130;-86
2022/03/30 12:27:46;;;;;;;14.03;7.87;;;13.80;99.90;;;;;;7386278;19;20212;-82
2022/03/30 12:30:12;;;;;;;12.30;8.07;;;13.80;99.90;;;;;;7388571;19;20127;-85
2022/03/30 12:32:38;;;;;;;13.87;8.80;;;13.70;99.90;;;;;;7396313;19;20142;-82
2022/03/30 12:35:12;;;;;;;14.27;7.30;;;13.70;99.90;;;;;;7389230;19;20641;-86
2022/03/30 12:37:43;;;;;;;17.37;10.50;;;13.80;99.90;;;;;;7384387;19;20241;-78
2022/03/30 12:40:20;;;;;;;9.47;6.33;;;13.40;99.90;;;;;;7385814;19;20190;-79
2022/03/30 12:42:48;;;;;;;5.50;4.80;;;13.20;99.90;;;;;;7387729;19;20161;-83
2022/03/30 12:45:17;;;;;;;8.97;5.00;;;13.20;99.90;;;;;;7387648;19;20130;-82
2022/03/30 12:47:55;;;;;;;7.37;4.20;;;13.00;99.90;;;;;;7386046;19;20148;-79
2022/03/30 12:50:32;;;;;;;4.57;3.77;;;13.00;99.90;;;;;;7389560;19;20165;-78
2022/03/30 12:53:15;;;;;;;5.63;4.17;;;12.90;99.90;;;;;;7410475;19;20146;-81
2022/03/30 12:55:43;;;;;;;5.90;4.20;;;12.60;99.90;;;;;;7394904;19;20159;-84
2022/03/30 12:58:22;;;;;;;4.43;3.67;;;12.40;99.90;;;;;;7395206;19;20139;-84
2022/03/30 13:00:53;;;;;;;4.20;3.40;;;12.40;99.90;;;;;;7386523;19;20158;-82
2022/03/30 13:03:29;;;;;;;4.85;3.75;;;12.50;99.90;;;;;;7386570;19;20154;-80